createdAt,value
2022-10-17T00:02:23.759Z,97385.47
2022-10-17T00:04:50.235Z,97376.88
2022-10-17T00:07:16.630Z,97381.19
2022-10-17T00:09:43.927Z,97386.34
2022-10-17T00:12:10.606Z,97381.19
2022-10-17T00:14:37.194Z,97382.06
2022-10-17T00:17:03.561Z,97380.34
2022-10-17T00:19:29.901Z,97383.75
2022-10-17T00:21:56.340Z,97386.34
2022-10-17T00:24:22.675Z,97394.09
2022-10-17T00:26:48.990Z,97388.06
2022-10-17T00:29:15.349Z,97393.22
2022-10-17T00:31:41.914Z,97394.09
2022-10-17T00:34:08.252Z,97396.66
2022-10-17T00:36:34.924Z,97405.28
2022-10-17T00:39:01.282Z,97400.97
2022-10-17T00:41:31.123Z,97405.28
2022-10-17T00:44:02.012Z,97404.41
2022-10-17T00:46:34.126Z,97411.28
2022-10-17T00:49:05.968Z,97404.41
2022-10-17T00:51:41.614Z,97402.69
2022-10-17T00:54:09.703Z,97405.28
2022-10-17T00:56:36.849Z,97399.25
2022-10-17T00:59:03.503Z,97404.41
2022-10-17T01:01:30.092Z,97403.56
2022-10-17T01:03:56.519Z,97407.88
2022-10-17T01:06:22.878Z,97407.84
2022-10-17T01:08:49.338Z,97405.28
2022-10-17T01:11:49.733Z,97411.31
2022-10-17T01:14:31.795Z,97413.03
2022-10-17T01:17:05.783Z,97416.47
2022-10-17T01:19:59.300Z,97410.41
2022-10-17T01:22:36.903Z,97408.69
2022-10-17T01:25:17.418Z,97404.41
2022-10-17T01:28:11.504Z,97404.41
2022-10-17T01:30:55.256Z,97406.09
2022-10-17T01:33:27.678Z,97408.63
2022-10-17T01:36:09.454Z,97409.50
2022-10-17T01:38:43.411Z,97400.03
2022-10-17T01:41:28.742Z,97401.78
2022-10-17T01:44:17.635Z,97389.72
2022-10-17T01:46:49.684Z,97397.47
2022-10-17T01:49:20.590Z,97396.59
2022-10-17T01:51:51.590Z,97390.56
2022-10-17T01:54:23.099Z,97393.13
2022-10-17T01:56:56.500Z,97392.25
2022-10-17T01:59:27.020Z,97389.69
2022-10-17T02:01:56.226Z,97388.81
2022-10-17T02:04:23.277Z,97393.97
2022-10-17T02:06:49.666Z,97390.53
2022-10-17T02:09:25.110Z,97392.25
2022-10-17T02:12:16.262Z,97395.66
2022-10-17T02:15:03.185Z,97394.78
2022-10-17T02:17:42.711Z,97393.94
2022-10-17T02:20:17.851Z,97387.06
2022-10-17T02:22:54.065Z,97393.06
2022-10-17T02:25:38.762Z,97399.94
2022-10-17T02:28:14.156Z,97396.50
2022-10-17T02:30:48.117Z,97396.50
2022-10-17T02:33:35.427Z,97397.34
2022-10-17T02:36:08.738Z,97390.44
2022-10-17T02:38:35.597Z,97383.56
2022-10-17T02:41:03.549Z,97393.88
2022-10-17T02:43:30.207Z,97394.72
2022-10-17T02:45:57.352Z,97394.72
2022-10-17T02:48:38.680Z,97396.47
2022-10-17T02:51:16.828Z,97397.31
2022-10-17T02:54:24.416Z,97398.16
2022-10-17T02:56:56.473Z,97401.59
2022-10-17T02:59:25.902Z,97401.59
2022-10-17T03:01:52.932Z,97401.63
2022-10-17T03:04:19.481Z,97397.31
2022-10-17T03:06:48.069Z,97395.59
2022-10-17T03:09:14.907Z,97399.84
2022-10-17T03:11:41.358Z,97399.84
2022-10-17T03:14:07.700Z,97402.41
2022-10-17T03:16:34.134Z,97399.78
2022-10-17T03:19:00.470Z,97409.19
2022-10-17T03:21:26.827Z,97399.75
2022-10-17T03:23:53.233Z,97399.72
2022-10-17T03:26:19.651Z,97405.75
2022-10-17T03:28:47.625Z,97419.44
2022-10-17T03:31:17.478Z,97421.97
2022-10-17T03:33:43.839Z,97417.63
2022-10-17T03:36:13.644Z,97423.63
2022-10-17T03:38:40.373Z,97415.91
2022-10-17T03:41:07.534Z,97423.63
2022-10-17T03:43:33.962Z,97420.13
2022-10-17T03:46:01.534Z,97419.25
2022-10-17T03:48:29.575Z,97426.13
2022-10-17T03:51:03.854Z,97425.25
2022-10-17T03:53:30.335Z,97424.41
2022-10-17T03:55:57.744Z,97431.25
2022-10-17T03:58:24.122Z,97420.94
2022-10-17T04:00:50.531Z,97432.16
2022-10-17T04:03:17.288Z,97442.41
2022-10-17T04:05:43.839Z,97435.59
2022-10-17T04:08:10.244Z,97438.22
2022-10-17T04:10:36.599Z,97436.47
2022-10-17T04:13:03.007Z,97440.75
2022-10-17T04:15:29.433Z,97434.63
2022-10-17T04:17:55.838Z,97443.16
2022-10-17T04:20:22.329Z,97456.00
2022-10-17T04:22:48.663Z,97454.31
2022-10-17T04:25:15.138Z,97437.97
2022-10-17T04:27:41.552Z,97455.16
2022-10-17T04:30:08.146Z,97449.94
2022-10-17T04:32:38.006Z,97455.84
2022-10-17T04:35:04.840Z,97452.31
2022-10-17T04:37:31.284Z,97459.06
2022-10-17T04:39:57.636Z,97460.72
2022-10-17T04:42:24.020Z,97452.91
2022-10-17T04:44:50.352Z,97459.72
2022-10-17T04:47:16.739Z,97459.69
2022-10-17T04:49:43.082Z,97458.81
2022-10-17T04:52:09.398Z,97457.13
2022-10-17T04:54:35.749Z,97457.13
2022-10-17T04:57:02.083Z,97457.13
2022-10-17T04:59:29.828Z,97452.81
2022-10-17T05:01:56.172Z,97464.03
2022-10-17T05:04:24.812Z,97455.47
2022-10-17T05:06:51.363Z,97456.31
2022-10-17T05:09:17.759Z,97458.88
2022-10-17T05:11:44.182Z,97461.41
2022-10-17T05:14:10.548Z,97463.97
2022-10-17T05:16:36.953Z,97457.06
2022-10-17T05:19:03.662Z,97452.72
2022-10-17T05:21:30.507Z,97461.19
2022-10-17T05:23:57.324Z,97463.81
2022-10-17T05:26:24.576Z,97471.56
2022-10-17T05:28:52.519Z,97474.13
2022-10-17T05:31:19.203Z,97478.31
2022-10-17T05:33:45.668Z,97485.19
2022-10-17T05:36:12.023Z,97476.63
2022-10-17T05:38:38.408Z,97482.63
2022-10-17T05:41:06.029Z,97488.66
2022-10-17T05:43:33.441Z,97487.78
2022-10-17T05:46:04.089Z,97491.19
2022-10-17T05:48:30.527Z,97489.41
2022-10-17T05:50:59.206Z,97489.34
2022-10-17T05:53:25.683Z,97491.03
2022-10-17T05:56:02.761Z,97494.41
2022-10-17T05:58:49.233Z,97486.59
2022-10-17T06:01:16.483Z,97496.78
2022-10-17T06:03:42.868Z,97505.34
2022-10-17T06:06:12.411Z,97511.38
2022-10-17T06:08:39.149Z,97513.13
2022-10-17T06:11:09.172Z,97515.06
2022-10-17T06:13:37.110Z,97507.63
2022-10-17T06:16:03.485Z,97512.06
2022-10-17T06:18:29.824Z,97508.81
2022-10-17T06:21:03.516Z,97514.25
2022-10-17T06:23:29.991Z,97514.47
2022-10-17T06:26:01.299Z,97517.16
2022-10-17T06:28:27.890Z,97520.59
2022-10-17T06:30:54.349Z,97526.72
2022-10-17T06:33:21.453Z,97526.75
2022-10-17T06:35:54.707Z,97527.84
2022-10-17T06:38:21.746Z,97530.56
2022-10-17T06:40:48.220Z,97526.31
2022-10-17T06:43:14.795Z,97522.94
2022-10-17T06:45:41.829Z,97528.03
2022-10-17T06:48:08.565Z,97528.13
2022-10-17T06:50:35.169Z,97533.25
2022-10-17T06:53:01.617Z,97539.28
2022-10-17T06:55:28.060Z,97534.16
2022-10-17T06:57:55.934Z,97530.78
2022-10-17T07:00:23.957Z,97529.06
2022-10-17T07:02:50.437Z,97535.97
2022-10-17T07:05:17.249Z,97534.25
2022-10-17T07:07:44.842Z,97534.25
2022-10-17T07:10:12.804Z,97541.06
2022-10-17T07:12:39.302Z,97536.53
2022-10-17T07:15:06.094Z,97534.47
2022-10-17T07:17:32.689Z,97532.41
2022-10-17T07:19:59.108Z,97540.13
2022-10-17T07:22:25.567Z,97543.81
2022-10-17T07:24:52.029Z,97540.38
2022-10-17T07:27:18.472Z,97557.72
2022-10-17T07:29:44.936Z,97558.50
2022-10-17T07:32:11.309Z,97564.53
2022-10-17T07:34:37.939Z,97559.22
2022-10-17T07:37:06.843Z,97560.91
2022-10-17T07:39:35.615Z,97554.91
2022-10-17T07:42:02.325Z,97563.66
2022-10-17T07:44:28.749Z,97564.50
2022-10-17T07:46:55.175Z,97560.22
2022-10-17T07:49:21.644Z,97567.13
2022-10-17T07:51:49.886Z,97567.22
2022-10-17T07:54:17.721Z,97567.94
2022-10-17T07:56:50.263Z,97574.66
2022-10-17T07:59:18.547Z,97576.75
2022-10-17T08:01:45.032Z,97566.38
2022-10-17T08:04:12.429Z,97569.56
2022-10-17T08:06:39.766Z,97567.34
2022-10-17T08:09:06.631Z,97574.41
2022-10-17T08:11:33.043Z,97574.69
2022-10-17T08:13:59.495Z,97577.34
2022-10-17T08:16:26.021Z,97567.25
2022-10-17T08:18:53.754Z,97575.25
2022-10-17T08:21:20.193Z,97573.63
2022-10-17T08:23:46.636Z,97577.47
2022-10-17T08:26:16.623Z,97569.25
2022-10-17T08:28:44.287Z,97574.13
2022-10-17T08:31:13.191Z,97577.34
2022-10-17T08:33:40.713Z,97579.81
2022-10-17T08:36:08.931Z,97579.56
2022-10-17T08:38:38.514Z,97580.75
2022-10-17T08:41:13.698Z,97577.22
2022-10-17T08:43:49.236Z,97572.59
2022-10-17T08:48:49.871Z,97567.13
2022-10-17T08:51:22.879Z,97566.44
2022-10-17T08:53:51.857Z,97563.25
2022-10-17T08:59:18.867Z,97567.00
2022-10-17T09:02:01.315Z,97572.94
2022-10-17T09:04:49.298Z,97576.09
2022-10-17T09:07:30.876Z,97572.56
2022-10-17T09:10:03.149Z,97571.25
2022-10-17T09:12:43.948Z,97560.84
2022-10-17T09:15:26.534Z,97566.69
2022-10-17T09:18:03.393Z,97560.78
2022-10-17T09:20:47.474Z,97567.81
2022-10-17T09:23:21.910Z,97569.81
2022-10-17T09:25:52.238Z,97573.81
2022-10-17T09:28:35.957Z,97574.44
2022-10-17T09:31:06.826Z,97578.56
2022-10-17T09:33:55.879Z,97580.88
2022-10-17T09:36:24.987Z,97583.59
2022-10-17T09:38:58.224Z,97583.59
2022-10-17T09:41:45.240Z,97588.63
2022-10-17T09:44:43.763Z,97581.66
2022-10-17T09:47:30.751Z,97585.91
2022-10-17T09:49:57.835Z,97574.13
2022-10-17T09:52:33.756Z,97580.06
2022-10-17T09:55:15.639Z,97573.50
2022-10-17T09:58:11.635Z,97584.75
2022-10-17T10:00:44.343Z,97580.72
2022-10-17T10:03:24.115Z,97593.41
2022-10-17T10:06:01.180Z,97596.00
2022-10-17T10:08:37.132Z,97591.97
2022-10-17T10:11:07.857Z,97592.38
2022-10-17T10:13:36.080Z,97581.16
2022-10-17T10:16:30.439Z,97580.63
2022-10-17T10:18:58.120Z,97587.13
2022-10-17T10:21:27.505Z,97588.91
2022-10-17T10:24:06.680Z,97583.50
2022-10-17T10:26:43.827Z,97586.41
2022-10-17T10:29:31.263Z,97583.88
2022-10-17T10:32:19.154Z,97585.69
2022-10-17T10:34:59.338Z,97582.06
2022-10-17T10:37:29.720Z,97576.75
2022-10-17T10:40:15.579Z,97568.56
2022-10-17T10:42:42.418Z,97566.69
2022-10-17T10:45:35.947Z,97568.13
2022-10-17T10:48:24.686Z,97563.97
2022-10-17T10:51:14.822Z,97562.63
2022-10-17T10:53:56.020Z,97559.31
2022-10-17T10:56:35.095Z,97570.06
2022-10-17T10:59:52.970Z,97567.69
2022-10-17T11:02:27.459Z,97576.19
2022-10-17T11:05:12.079Z,97575.03
2022-10-17T11:07:45.459Z,97564.88
2022-10-17T11:10:22.946Z,97568.34
2022-10-17T11:13:10.624Z,97558.53
2022-10-17T11:15:42.727Z,97551.47
2022-10-17T11:18:22.321Z,97553.63
2022-10-17T11:20:57.608Z,97543.06
2022-10-17T11:23:38.396Z,97549.44
2022-10-17T11:26:13.251Z,97546.38
2022-10-17T11:28:39.801Z,97551.34
2022-10-17T11:31:12.949Z,97545.47
2022-10-17T11:33:39.317Z,97546.81
2022-10-17T11:36:08.991Z,97532.41
2022-10-17T11:38:47.834Z,97539.16
2022-10-17T11:41:20.899Z,97535.00
2022-10-17T11:43:53.102Z,97536.69
2022-10-17T11:46:24.916Z,97547.81
2022-10-17T11:49:41.856Z,97537.13
2022-10-17T11:52:37.726Z,97536.50
2022-10-17T11:55:20.373Z,97538.59
2022-10-17T11:57:58.560Z,97553.50
2022-10-17T12:00:55.006Z,97536.66
2022-10-17T12:03:47.928Z,97538.78
2022-10-17T12:06:29.492Z,97534.06
2022-10-17T12:09:25.459Z,97529.03
2022-10-17T12:11:57.427Z,97528.28
2022-10-17T12:14:46.663Z,97521.75
2022-10-17T12:17:22.344Z,97515.69
2022-10-17T12:19:48.907Z,97518.63
2022-10-17T12:22:19.667Z,97516.88
2022-10-17T12:25:00.342Z,97507.72
2022-10-17T12:27:37.018Z,97496.34
2022-10-17T12:30:26.279Z,97500.72
2022-10-17T12:33:06.711Z,97504.06
2022-10-17T12:35:36.279Z,97512.09
2022-10-17T12:38:13.813Z,97505.28
2022-10-17T12:40:48.468Z,97513.63
2022-10-17T12:43:17.913Z,97507.06
2022-10-17T12:46:10.786Z,97496.38
2022-10-17T12:48:37.160Z,97506.91
2022-10-17T12:51:34.797Z,97510.66
2022-10-17T12:54:14.924Z,97508.47
2022-10-17T12:56:44.466Z,97511.13
2022-10-17T12:59:16.355Z,97499.69
2022-10-17T13:01:46.557Z,97502.03
2022-10-17T13:04:13.374Z,97504.06
2022-10-17T13:06:54.116Z,97504.44
2022-10-17T13:09:32.543Z,97505.72
2022-10-17T13:12:02.677Z,97507.00
2022-10-17T13:14:32.490Z,97503.56
2022-10-17T13:17:04.536Z,97510.44
2022-10-17T13:19:42.048Z,97504.38
2022-10-17T13:22:16.703Z,97510.16
2022-10-17T13:24:43.382Z,97510.78
2022-10-17T13:27:30.949Z,97520.56
2022-10-17T13:29:59.576Z,97515.34
2022-10-17T13:32:36.027Z,97512.97
2022-10-17T13:35:14.815Z,97519.63
2022-10-17T13:37:43.511Z,97514.28
2022-10-17T13:40:44.716Z,97522.03
2022-10-17T13:43:19.868Z,97519.34
2022-10-17T13:45:55.066Z,97507.22
2022-10-17T13:48:27.165Z,97509.34
2022-10-17T13:51:00.386Z,97504.88
2022-10-17T13:53:33.323Z,97501.97
2022-10-17T13:56:33.940Z,97505.19
2022-10-17T13:59:07.986Z,97504.34
2022-10-17T14:01:34.772Z,97493.97
2022-10-17T14:04:11.651Z,97501.19
2022-10-17T14:06:49.283Z,97506.50
2022-10-17T14:09:22.594Z,97512.69
2022-10-17T14:12:12.522Z,97515.66
2022-10-17T14:15:05.252Z,97504.50
2022-10-17T14:17:29.790Z,97506.19
2022-10-17T14:23:10.583Z,97509.06
2022-10-17T14:25:40.175Z,97511.47
2022-10-17T14:28:12.658Z,97512.72
2022-10-17T14:30:56.158Z,97509.44
2022-10-17T14:33:24.024Z,97510.41
2022-10-17T14:35:55.615Z,97506.50
2022-10-17T14:38:22.872Z,97514.53
2022-10-17T14:41:30.307Z,97520.22
2022-10-17T14:44:04.576Z,97522.78
2022-10-17T14:46:31.228Z,97537.34
2022-10-17T14:49:20.497Z,97528.38
2022-10-17T14:52:18.796Z,97535.31
2022-10-17T14:54:56.112Z,97536.91
2022-10-17T14:57:27.984Z,97535.94
2022-10-17T14:59:57.636Z,97537.81
2022-10-17T15:02:29.898Z,97541.59
2022-10-17T15:04:56.845Z,97543.88
2022-10-17T15:07:23.869Z,97544.34
2022-10-17T15:09:53.122Z,97530.63
2022-10-17T15:12:22.776Z,97548.59
2022-10-17T15:14:49.476Z,97548.00
2022-10-17T15:17:20.760Z,97545.53
2022-10-17T15:19:48.490Z,97545.22
2022-10-17T15:22:16.060Z,97550.25
2022-10-17T15:24:42.598Z,97547.19
2022-10-17T15:27:16.607Z,97563.69
2022-10-17T15:29:43.058Z,97562.75
2022-10-17T15:32:09.515Z,97563.84
2022-10-17T15:34:35.874Z,97571.72
2022-10-17T15:37:04.851Z,97575.81
2022-10-17T15:39:31.316Z,97579.97
2022-10-17T15:41:58.697Z,97580.63
2022-10-17T15:44:25.094Z,97587.00
2022-10-17T15:46:51.567Z,97589.91
2022-10-17T15:49:19.647Z,97593.66
2022-10-17T15:51:51.701Z,97593.91
2022-10-17T15:54:21.775Z,97599.44
2022-10-17T15:56:53.950Z,97598.03
2022-10-17T15:59:25.874Z,97599.97
2022-10-17T16:01:52.476Z,97600.75
2022-10-17T16:04:18.949Z,97595.75
2022-10-17T16:06:45.476Z,97598.66
2022-10-17T16:09:11.911Z,97607.50
2022-10-17T16:11:41.411Z,97599.97
2022-10-17T16:14:15.238Z,97606.28
2022-10-17T16:16:41.766Z,97599.78
2022-10-17T16:19:08.475Z,97607.81
2022-10-17T16:21:39.783Z,97618.31
2022-10-17T16:24:06.473Z,97623.63
2022-10-17T16:26:32.966Z,97623.72
2022-10-17T16:29:02.753Z,97628.03
2022-10-17T16:31:33.059Z,97626.44
2022-10-17T16:34:01.391Z,97625.63
2022-10-17T16:36:28.090Z,97630.03
2022-10-17T16:38:54.578Z,97624.97
2022-10-17T16:41:29.903Z,97625.06
2022-10-17T16:43:58.806Z,97631.19
2022-10-17T16:46:26.811Z,97630.38
2022-10-17T16:48:53.827Z,97631.19
2022-10-17T16:51:20.731Z,97626.84
2022-10-17T16:53:50.099Z,97629.50
2022-10-17T16:56:18.741Z,97633.03
2022-10-17T16:58:46.015Z,97633.13
2022-10-17T17:01:15.418Z,97637.56
2022-10-17T17:03:43.339Z,97633.22
2022-10-17T17:06:14.318Z,97633.22
2022-10-17T17:08:42.063Z,97640.13
2022-10-17T17:11:10.416Z,97636.75
2022-10-17T17:13:37.635Z,97634.25
2022-10-17T17:16:05.449Z,97634.25
2022-10-17T17:18:32.154Z,97638.63
2022-10-17T17:21:04.781Z,97642.09
2022-10-17T17:23:33.764Z,97642.97
2022-10-17T17:26:11.758Z,97643.88
2022-10-17T17:28:39.156Z,97638.72
2022-10-17T17:31:10.639Z,97636.19
2022-10-17T17:33:39.049Z,97641.31
2022-10-17T17:36:06.411Z,97638.72
2022-10-17T17:38:35.691Z,97639.59
2022-10-17T17:41:03.195Z,97643.94
2022-10-17T17:43:30.148Z,97638.84
2022-10-17T17:46:00.976Z,97638.88
2022-10-17T17:48:27.339Z,97645.81
2022-10-17T17:50:53.751Z,97644.97
2022-10-17T17:53:20.096Z,97642.34
2022-10-17T17:55:46.648Z,97650.13
2022-10-17T17:58:13.288Z,97650.13
2022-10-17T18:00:40.568Z,97626.06
2022-10-17T18:03:07.380Z,97649.28
2022-10-17T18:05:34.021Z,97644.13
2022-10-17T18:08:00.369Z,97644.97
2022-10-17T18:10:28.335Z,97650.97
2022-10-17T18:12:54.698Z,97657.06
2022-10-17T18:15:21.113Z,97657.09
2022-10-17T18:17:47.761Z,97658.78
2022-10-17T18:20:14.096Z,97656.22
2022-10-17T18:22:40.515Z,97670.84
2022-10-17T18:25:07.328Z,97673.47
2022-10-17T18:27:33.891Z,97668.28
2022-10-17T18:30:00.218Z,97668.28
2022-10-17T18:32:31.098Z,97664.84
2022-10-17T18:34:57.867Z,97664.81
2022-10-17T18:37:24.289Z,97670.91
2022-10-17T18:39:52.649Z,97670.09
2022-10-17T18:42:18.988Z,97669.22
2022-10-17T18:44:47.742Z,97676.13
2022-10-17T18:47:14.143Z,97669.25
2022-10-17T18:49:40.677Z,97667.53
2022-10-17T18:52:07.055Z,97668.44
2022-10-17T18:54:34.601Z,97675.28
2022-10-17T18:57:01.229Z,97670.13
2022-10-17T18:59:27.791Z,97674.44
2022-10-17T19:01:54.321Z,97676.19
2022-10-17T19:04:21.175Z,97678.78
2022-10-17T19:06:48.519Z,97678.81
2022-10-17T19:09:15.268Z,97677.09
2022-10-17T19:11:43.252Z,97677.97
2022-10-17T19:14:14.405Z,97679.69
2022-10-17T19:16:46.664Z,97682.28
2022-10-17T19:19:16.137Z,97685.75
2022-10-17T19:21:42.950Z,97682.31
2022-10-17T19:24:13.695Z,97689.19
2022-10-17T19:26:41.265Z,97689.19
2022-10-17T19:29:07.812Z,97688.34
2022-10-17T19:31:35.652Z,97688.31
2022-10-17T19:34:02.173Z,97689.19
2022-10-17T19:36:33.654Z,97696.94
2022-10-17T19:39:02.845Z,97699.53
2022-10-17T19:41:29.411Z,97701.28
2022-10-17T19:43:55.986Z,97700.41
2022-10-17T19:46:24.935Z,97707.28
2022-10-17T19:48:51.791Z,97708.16
2022-10-17T19:51:20.736Z,97713.31
2022-10-17T19:53:47.616Z,97709.88
2022-10-17T19:56:14.171Z,97708.13
2022-10-17T19:58:45.262Z,97709.88
2022-10-17T20:01:26.726Z,97718.47
2022-10-17T20:03:53.767Z,97720.22
2022-10-17T20:06:21.397Z,97713.31
2022-10-17T20:08:48.888Z,97697.78
2022-10-17T20:11:22.370Z,97712.44
2022-10-17T20:13:48.751Z,97712.44
2022-10-17T20:16:23.069Z,97712.44
2022-10-17T20:18:51.231Z,97713.31
2022-10-17T20:21:25.083Z,97712.44
2022-10-17T20:23:51.516Z,97714.16
2022-10-17T20:26:38.617Z,97712.44
2022-10-17T20:29:10.424Z,97714.97
2022-10-17T20:31:39.391Z,97724.44
2022-10-17T20:34:05.982Z,97727.00
2022-10-17T20:36:36.522Z,97726.16
2022-10-17T20:39:05.387Z,97727.03
2022-10-17T20:41:31.805Z,97723.56
2022-10-17T20:43:59.268Z,97726.16
2022-10-17T20:49:17.567Z,97723.56
2022-10-17T20:51:44.828Z,97726.16
2022-10-17T20:54:12.594Z,97721.81
2022-10-17T20:56:39.789Z,97724.41
2022-10-17T20:59:10.594Z,97723.53
2022-10-17T21:01:40.460Z,97717.53
2022-10-17T21:04:33.456Z,97716.69
2022-10-17T21:06:53.495Z,97718.38
2022-10-17T21:09:20.325Z,97722.72
2022-10-17T21:11:48.259Z,97722.72
2022-10-17T21:14:16.659Z,97724.44
2022-10-17T21:16:43.298Z,97721.84
2022-10-17T21:19:11.529Z,97721.00
2022-10-17T21:21:40.463Z,97724.44
2022-10-17T21:24:12.864Z,97719.25
2022-10-17T21:26:40.432Z,97714.09
2022-10-17T21:29:07.788Z,97714.13
2022-10-17T21:31:37.416Z,97712.38
2022-10-17T21:34:27.694Z,97709.75
2022-10-17T21:36:54.068Z,97711.47
2022-10-17T21:39:21.844Z,97710.63
2022-10-17T21:41:48.331Z,97715.78
2022-10-17T21:44:20.841Z,97720.94
2022-10-17T21:46:48.011Z,97730.41
2022-10-17T21:49:17.322Z,97720.94
2022-10-17T21:51:44.797Z,97719.22
2022-10-17T21:54:11.423Z,97725.25
2022-10-17T21:56:37.730Z,97726.09
2022-10-17T21:59:04.829Z,97730.38
2022-10-17T22:01:38.810Z,97731.25
2022-10-17T22:04:07.771Z,97726.94
2022-10-17T22:06:40.056Z,97730.41
2022-10-17T22:09:10.067Z,97733.84
2022-10-17T22:11:36.615Z,97728.69
2022-10-17T22:14:10.732Z,97729.53
2022-10-17T22:16:37.808Z,97728.69
2022-10-17T22:19:06.655Z,97734.69
2022-10-17T22:21:34.865Z,97729.50
2022-10-17T22:24:04.444Z,97732.06
2022-10-17T22:26:33.044Z,97733.78
2022-10-17T22:28:59.657Z,97722.56
2022-10-17T22:31:26.434Z,97728.56
2022-10-17T22:33:55.964Z,97725.13
2022-10-17T22:36:22.542Z,97726.84
2022-10-17T22:38:48.890Z,97722.50
2022-10-17T22:41:15.268Z,97719.88
2022-10-17T22:43:41.598Z,97714.72
2022-10-17T22:46:08.416Z,97712.16
2022-10-17T22:48:35.193Z,97710.41
2022-10-17T22:51:02.652Z,97712.97
2022-10-17T22:53:29.913Z,97712.09
2022-10-17T22:56:03.730Z,97711.19
2022-10-17T22:58:31.457Z,97711.13
2022-10-17T23:00:58.644Z,97709.41
2022-10-17T23:03:27.282Z,97708.53
2022-10-17T23:05:54.824Z,97707.69
2022-10-17T23:08:21.333Z,97695.63
2022-10-17T23:10:48.148Z,97700.81
2022-10-17T23:13:15.858Z,97699.06
2022-10-17T23:15:43.211Z,97687.97
2022-10-17T23:18:10.259Z,97693.94
2022-10-17T23:20:37.811Z,97694.84
2022-10-17T23:23:04.803Z,97685.34
2022-10-17T23:25:33.785Z,97687.06
2022-10-17T23:28:00.749Z,97690.50
2022-10-17T23:30:27.288Z,97683.59
2022-10-17T23:32:53.776Z,97674.94
2022-10-17T23:35:20.149Z,97678.34
2022-10-17T23:37:46.512Z,97684.38
2022-10-17T23:40:13.104Z,97691.25
2022-10-17T23:42:39.568Z,97687.78
2022-10-17T23:45:06.654Z,97689.47
2022-10-17T23:47:33.375Z,97686.84
2022-10-17T23:50:00.096Z,97686.81
2022-10-17T23:52:26.482Z,97692.84
2022-10-17T23:54:52.963Z,97692.81
2022-10-17T23:57:19.474Z,97685.97
2022-10-17T23:59:45.883Z,97685.97
